sensor_id;sensor_type;location;lat;lon;timestamp;pressure;altitude;pressure_sealevel;temperature;humidity
16793;BME280;8513;42.662;23.350;2022-10-10T00:01:40;95645.47;;;13.52;66.98
16793;BME280;8513;42.662;23.350;2022-10-10T00:04:06;95643.19;;;13.57;66.93
16793;BME280;8513;42.662;23.350;2022-10-10T00:06:31;95646.25;;;13.70;66.12
16793;BME280;8513;42.662;23.350;2022-10-10T00:08:57;95646.72;;;13.65;66.10
16793;BME280;8513;42.662;23.350;2022-10-10T00:11:23;95652.94;;;13.56;66.36
16793;BME280;8513;42.662;23.350;2022-10-10T00:13:50;95655.53;;;13.48;66.81
16793;BME280;8513;42.662;23.350;2022-10-10T00:16:17;95658.63;;;13.43;67.33
16793;BME280;8513;42.662;23.350;2022-10-10T00:18:43;95656.34;;;13.49;67.01
16793;BME280;8513;42.662;23.350;2022-10-10T00:21:09;95655.72;;;13.55;66.60
16793;BME280;8513;42.662;23.350;2022-10-10T00:23:35;95645.66;;;13.50;66.73
16793;BME280;8513;42.662;23.350;2022-10-10T00:26:01;95652.00;;;13.39;67.29
16793;BME280;8513;42.662;23.350;2022-10-10T00:28:27;95644.78;;;13.50;66.51
16793;BME280;8513;42.662;23.350;2022-10-10T00:30:52;95644.97;;;13.48;66.52
16793;BME280;8513;42.662;23.350;2022-10-10T00:33:18;95642.34;;;13.30;66.96
16793;BME280;8513;42.662;23.350;2022-10-10T00:35:43;95637.41;;;13.17;67.27
16793;BME280;8513;42.662;23.350;2022-10-10T00:38:09;95645.66;;;13.14;67.36
16793;BME280;8513;42.662;23.350;2022-10-10T00:40:51;95645.50;;;13.16;67.42
16793;BME280;8513;42.662;23.350;2022-10-10T00:43:19;95645.81;;;13.13;67.48
16793;BME280;8513;42.662;23.350;2022-10-10T00:45:46;95649.09;;;13.15;67.48
16793;BME280;8513;42.662;23.350;2022-10-10T00:48:18;95649.34;;;13.21;67.37
16793;BME280;8513;42.662;23.350;2022-10-10T00:50:51;95651.16;;;13.03;67.64
16793;BME280;8513;42.662;23.350;2022-10-10T00:53:22;95649.53;;;13.02;67.77
16793;BME280;8513;42.662;23.350;2022-10-10T00:55:49;95650.78;;;13.16;67.41
16793;BME280;8513;42.662;23.350;2022-10-10T00:58:16;95648.28;;;13.14;67.11
16793;BME280;8513;42.662;23.350;2022-10-10T01:00:44;95649.78;;;12.99;67.36
16793;BME280;8513;42.662;23.350;2022-10-10T01:03:10;95660.88;;;12.85;68.36
16793;BME280;8513;42.662;23.350;2022-10-10T01:05:36;95659.97;;;12.76;68.74
16793;BME280;8513;42.662;23.350;2022-10-10T01:08:03;95652.84;;;12.86;68.40
16793;BME280;8513;42.662;23.350;2022-10-10T01:10:40;95649.25;;;12.77;68.46
16793;BME280;8513;42.662;23.350;2022-10-10T01:13:39;95656.59;;;12.84;68.31
16793;BME280;8513;42.662;23.350;2022-10-10T01:16:22;95659.16;;;12.93;67.96
16793;BME280;8513;42.662;23.350;2022-10-10T01:29:55;95657.94;;;12.70;68.74
16793;BME280;8513;42.662;23.350;2022-10-10T01:32:36;95670.44;;;12.68;68.55
16793;BME280;8513;42.662;23.350;2022-10-10T01:35:26;95663.00;;;12.81;68.69
16793;BME280;8513;42.662;23.350;2022-10-10T01:41:15;95665.91;;;12.60;68.66
16793;BME280;8513;42.662;23.350;2022-10-10T01:43:41;95660.63;;;12.60;68.92
16793;BME280;8513;42.662;23.350;2022-10-10T01:46:15;95661.91;;;12.56;69.26
16793;BME280;8513;42.662;23.350;2022-10-10T01:48:44;95661.63;;;12.59;69.28
16793;BME280;8513;42.662;23.350;2022-10-10T02:05:04;95661.75;;;12.57;69.21
16793;BME280;8513;42.662;23.350;2022-10-10T02:07:40;95661.81;;;12.48;69.62
16793;BME280;8513;42.662;23.350;2022-10-10T02:10:07;95666.91;;;12.31;70.08
16793;BME280;8513;42.662;23.350;2022-10-10T02:12:36;95662.94;;;12.45;69.65
16793;BME280;8513;42.662;23.350;2022-10-10T02:15:08;95664.69;;;12.27;70.26
16793;BME280;8513;42.662;23.350;2022-10-10T02:17:37;95666.09;;;12.21;70.35
16793;BME280;8513;42.662;23.350;2022-10-10T02:20:05;95670.41;;;12.22;70.26
16793;BME280;8513;42.662;23.350;2022-10-10T02:22:33;95671.31;;;12.41;69.92
16793;BME280;8513;42.662;23.350;2022-10-10T02:24:59;95666.50;;;12.54;69.10
16793;BME280;8513;42.662;23.350;2022-10-10T02:27:31;95667.09;;;12.48;69.04
16793;BME280;8513;42.662;23.350;2022-10-10T02:30:02;95663.81;;;12.36;69.48
16793;BME280;8513;42.662;23.350;2022-10-10T02:32:32;95668.91;;;12.47;68.86
16793;BME280;8513;42.662;23.350;2022-10-10T02:35:06;95671.63;;;12.55;68.67
16793;BME280;8513;42.662;23.350;2022-10-10T02:37:35;95667.38;;;12.45;69.02
16793;BME280;8513;42.662;23.350;2022-10-10T02:40:03;95666.47;;;12.36;69.12
16793;BME280;8513;42.662;23.350;2022-10-10T02:42:30;95675.78;;;12.30;69.09
16793;BME280;8513;42.662;23.350;2022-10-10T02:44:56;95673.84;;;12.32;69.01
16793;BME280;8513;42.662;23.350;2022-10-10T02:47:22;95672.47;;;12.28;69.46
16793;BME280;8513;42.662;23.350;2022-10-10T02:49:47;95672.03;;;12.33;69.44
16793;BME280;8513;42.662;23.350;2022-10-10T02:52:15;95669.44;;;12.23;69.48
16793;BME280;8513;42.662;23.350;2022-10-10T02:54:41;95672.97;;;12.42;68.80
16793;BME280;8513;42.662;23.350;2022-10-10T02:57:06;95669.19;;;12.17;69.45
16793;BME280;8513;42.662;23.350;2022-10-10T02:59:32;95672.50;;;12.19;69.81
16793;BME280;8513;42.662;23.350;2022-10-10T03:01:58;95670.72;;;12.19;69.62
16793;BME280;8513;42.662;23.350;2022-10-10T03:04:23;95666.00;;;12.13;69.25
16793;BME280;8513;42.662;23.350;2022-10-10T03:06:49;95665.19;;;12.12;70.01
16793;BME280;8513;42.662;23.350;2022-10-10T03:09:14;95673.78;;;12.14;69.79
16793;BME280;8513;42.662;23.350;2022-10-10T03:11:40;95674.22;;;12.10;70.44
16793;BME280;8513;42.662;23.350;2022-10-10T03:14:05;95677.25;;;12.15;70.36
16793;BME280;8513;42.662;23.350;2022-10-10T03:16:31;95669.66;;;12.02;70.33
16793;BME280;8513;42.662;23.350;2022-10-10T03:18:56;95680.06;;;12.04;70.64
16793;BME280;8513;42.662;23.350;2022-10-10T03:21:22;95671.63;;;12.00;69.86
16793;BME280;8513;42.662;23.350;2022-10-10T03:23:47;95685.03;;;12.07;69.65
16793;BME280;8513;42.662;23.350;2022-10-10T03:26:12;95686.06;;;11.96;70.13
16793;BME280;8513;42.662;23.350;2022-10-10T03:28:38;95686.88;;;11.97;69.56
16793;BME280;8513;42.662;23.350;2022-10-10T03:31:04;95688.41;;;11.99;69.29
16793;BME280;8513;42.662;23.350;2022-10-10T03:33:29;95683.41;;;11.96;69.46
16793;BME280;8513;42.662;23.350;2022-10-10T03:35:55;95679.56;;;11.90;69.28
16793;BME280;8513;42.662;23.350;2022-10-10T03:38:20;95679.03;;;11.87;70.17
16793;BME280;8513;42.662;23.350;2022-10-10T03:40:46;95685.63;;;11.81;70.22
16793;BME280;8513;42.662;23.350;2022-10-10T03:43:12;95687.34;;;11.73;70.80
16793;BME280;8513;42.662;23.350;2022-10-10T03:45:41;95684.28;;;11.67;70.82
16793;BME280;8513;42.662;23.350;2022-10-10T03:48:06;95676.53;;;11.66;70.62
16793;BME280;8513;42.662;23.350;2022-10-10T03:50:32;95685.28;;;11.66;70.59
16793;BME280;8513;42.662;23.350;2022-10-10T03:52:57;95678.38;;;11.46;71.24
16793;BME280;8513;42.662;23.350;2022-10-10T03:55:23;95684.63;;;11.55;70.97
16793;BME280;8513;42.662;23.350;2022-10-10T03:57:48;95677.25;;;11.58;70.74
16793;BME280;8513;42.662;23.350;2022-10-10T04:00:14;95678.34;;;11.65;70.02
16793;BME280;8513;42.662;23.350;2022-10-10T04:02:39;95689.28;;;11.70;69.79
16793;BME280;8513;42.662;23.350;2022-10-10T04:05:05;95680.72;;;11.49;70.46
16793;BME280;8513;42.662;23.350;2022-10-10T04:07:31;95690.13;;;11.71;69.87
16793;BME280;8513;42.662;23.350;2022-10-10T04:09:57;95692.88;;;11.79;70.09
16793;BME280;8513;42.662;23.350;2022-10-10T04:12:22;95693.75;;;11.60;71.39
16793;BME280;8513;42.662;23.350;2022-10-10T04:14:48;95681.97;;;11.55;70.38
16793;BME280;8513;42.662;23.350;2022-10-10T04:17:13;95695.53;;;11.60;70.36
16793;BME280;8513;42.662;23.350;2022-10-10T04:19:39;95689.06;;;11.44;70.72
16793;BME280;8513;42.662;23.350;2022-10-10T04:22:04;95690.84;;;11.44;70.70
16793;BME280;8513;42.662;23.350;2022-10-10T04:24:30;95700.00;;;11.40;71.29
16793;BME280;8513;42.662;23.350;2022-10-10T04:26:55;95687.94;;;11.27;71.80
16793;BME280;8513;42.662;23.350;2022-10-10T04:29:21;95689.59;;;11.38;71.47
16793;BME280;8513;42.662;23.350;2022-10-10T04:31:47;95682.41;;;11.40;71.38
16793;BME280;8513;42.662;23.350;2022-10-10T04:34:12;95688.19;;;11.44;71.79
16793;BME280;8513;42.662;23.350;2022-10-10T04:36:38;95681.97;;;11.55;71.05
16793;BME280;8513;42.662;23.350;2022-10-10T04:39:03;95684.75;;;11.43;71.18
16793;BME280;8513;42.662;23.350;2022-10-10T04:41:29;95688.06;;;11.36;71.52
16793;BME280;8513;42.662;23.350;2022-10-10T04:43:54;95696.25;;;11.52;71.23
16793;BME280;8513;42.662;23.350;2022-10-10T04:46:20;95697.63;;;11.66;70.43
16793;BME280;8513;42.662;23.350;2022-10-10T04:48:45;95702.72;;;11.77;70.11
16793;BME280;8513;42.662;23.350;2022-10-10T04:51:11;95696.22;;;11.62;70.81
16793;BME280;8513;42.662;23.350;2022-10-10T04:53:36;95698.56;;;11.65;70.78
16793;BME280;8513;42.662;23.350;2022-10-10T04:56:02;95698.56;;;11.65;71.86
16793;BME280;8513;42.662;23.350;2022-10-10T04:58:27;95704.25;;;11.70;71.10
16793;BME280;8513;42.662;23.350;2022-10-10T05:00:54;95701.22;;;11.65;71.42
16793;BME280;8513;42.662;23.350;2022-10-10T05:03:21;95709.81;;;11.67;71.32
16793;BME280;8513;42.662;23.350;2022-10-10T05:05:47;95708.16;;;11.66;71.49
16793;BME280;8513;42.662;23.350;2022-10-10T05:08:12;95707.63;;;11.53;72.13
16793;BME280;8513;42.662;23.350;2022-10-10T05:10:38;95709.16;;;11.45;72.50
16793;BME280;8513;42.662;23.350;2022-10-10T05:13:05;95710.25;;;11.53;72.77
16793;BME280;8513;42.662;23.350;2022-10-10T05:15:33;95714.69;;;11.33;73.96
16793;BME280;8513;42.662;23.350;2022-10-10T05:17:59;95719.66;;;11.65;72.64
16793;BME280;8513;42.662;23.350;2022-10-10T05:20:25;95709.97;;;11.65;72.04
16793;BME280;8513;42.662;23.350;2022-10-10T05:22:50;95713.31;;;11.58;72.21
16793;BME280;8513;42.662;23.350;2022-10-10T05:25:16;95707.22;;;11.47;73.26
16793;BME280;8513;42.662;23.350;2022-10-10T05:27:41;95712.03;;;11.72;72.37
16793;BME280;8513;42.662;23.350;2022-10-10T05:30:07;95718.66;;;11.85;71.97
16793;BME280;8513;42.662;23.350;2022-10-10T05:32:32;95727.94;;;11.99;71.06
16793;BME280;8513;42.662;23.350;2022-10-10T05:34:58;95737.66;;;11.99;71.19
16793;BME280;8513;42.662;23.350;2022-10-10T05:37:23;95730.00;;;12.05;70.83
16793;BME280;8513;42.662;23.350;2022-10-10T05:39:49;95728.53;;;12.30;70.28
16793;BME280;8513;42.662;23.350;2022-10-10T05:42:14;95731.97;;;12.03;72.12
16793;BME280;8513;42.662;23.350;2022-10-10T05:44:40;95729.72;;;12.08;71.77
16793;BME280;8513;42.662;23.350;2022-10-10T05:47:05;95745.78;;;12.25;71.02
16793;BME280;8513;42.662;23.350;2022-10-10T05:49:30;95740.22;;;12.18;71.12
16793;BME280;8513;42.662;23.350;2022-10-10T05:51:56;95736.84;;;12.35;70.54
16793;BME280;8513;42.662;23.350;2022-10-10T05:54:21;95748.56;;;12.51;69.83
16793;BME280;8513;42.662;23.350;2022-10-10T05:56:47;95746.19;;;12.57;69.46
16793;BME280;8513;42.662;23.350;2022-10-10T05:59:12;95742.81;;;12.65;69.34
16793;BME280;8513;42.662;23.350;2022-10-10T06:01:38;95749.97;;;12.45;70.05
16793;BME280;8513;42.662;23.350;2022-10-10T06:04:03;95753.56;;;12.54;69.82
16793;BME280;8513;42.662;23.350;2022-10-10T06:06:29;95762.59;;;12.79;69.71
16793;BME280;8513;42.662;23.350;2022-10-10T06:08:54;95752.81;;;12.89;68.50
16793;BME280;8513;42.662;23.350;2022-10-10T06:11:20;95762.03;;;13.03;68.38
16793;BME280;8513;42.662;23.350;2022-10-10T06:13:48;95761.31;;;13.11;67.36
16793;BME280;8513;42.662;23.350;2022-10-10T06:16:19;95766.78;;;13.27;66.69
16793;BME280;8513;42.662;23.350;2022-10-10T06:18:45;95764.66;;;13.31;65.95
16793;BME280;8513;42.662;23.350;2022-10-10T06:21:11;95761.59;;;13.35;65.82
16793;BME280;8513;42.662;23.350;2022-10-10T06:23:36;95759.97;;;13.60;65.51
16793;BME280;8513;42.662;23.350;2022-10-10T06:26:02;95765.94;;;13.80;65.17
16793;BME280;8513;42.662;23.350;2022-10-10T06:28:28;95765.31;;;13.86;64.58
16793;BME280;8513;42.662;23.350;2022-10-10T06:31:00;95773.91;;;14.06;64.00
16793;BME280;8513;42.662;23.350;2022-10-10T06:33:26;95776.72;;;14.31;63.00
16793;BME280;8513;42.662;23.350;2022-10-10T06:35:52;95768.72;;;14.23;63.12
16793;BME280;8513;42.662;23.350;2022-10-10T06:38:17;95770.75;;;14.29;63.28
16793;BME280;8513;42.662;23.350;2022-10-10T06:40:43;95775.28;;;14.45;62.95
16793;BME280;8513;42.662;23.350;2022-10-10T06:43:10;95777.75;;;14.38;63.44
16793;BME280;8513;42.662;23.350;2022-10-10T06:45:37;95777.06;;;14.10;63.60
16793;BME280;8513;42.662;23.350;2022-10-10T06:48:03;95777.44;;;14.15;63.26
16793;BME280;8513;42.662;23.350;2022-10-10T06:50:29;95772.25;;;14.31;63.52
16793;BME280;8513;42.662;23.350;2022-10-10T06:52:54;95783.44;;;14.51;63.69
16793;BME280;8513;42.662;23.350;2022-10-10T06:55:20;95770.97;;;14.70;63.06
16793;BME280;8513;42.662;23.350;2022-10-10T06:57:45;95776.75;;;14.65;62.67
16793;BME280;8513;42.662;23.350;2022-10-10T07:00:11;95775.97;;;14.73;62.72
16793;BME280;8513;42.662;23.350;2022-10-10T07:02:37;95775.72;;;14.92;61.75
16793;BME280;8513;42.662;23.350;2022-10-10T07:05:06;95781.97;;;14.91;61.57
16793;BME280;8513;42.662;23.350;2022-10-10T07:07:33;95782.97;;;14.90;60.81
16793;BME280;8513;42.662;23.350;2022-10-10T07:09:59;95780.84;;;14.94;60.92
16793;BME280;8513;42.662;23.350;2022-10-10T07:12:24;95783.41;;;14.77;61.76
16793;BME280;8513;42.662;23.350;2022-10-10T07:14:50;95785.97;;;14.95;61.49
16793;BME280;8513;42.662;23.350;2022-10-10T07:17:15;95774.09;;;14.99;61.46
16793;BME280;8513;42.662;23.350;2022-10-10T07:19:41;95782.53;;;15.03;61.08
16793;BME280;8513;42.662;23.350;2022-10-10T07:22:06;95779.72;;;15.13;60.84
16793;BME280;8513;42.662;23.350;2022-10-10T07:24:31;95768.66;;;15.17;60.02
16793;BME280;8513;42.662;23.350;2022-10-10T07:26:57;95773.63;;;15.12;60.88
16793;BME280;8513;42.662;23.350;2022-10-10T07:29:22;95773.19;;;15.41;59.84
16793;BME280;8513;42.662;23.350;2022-10-10T07:31:49;95777.00;;;15.47;59.35
16793;BME280;8513;42.662;23.350;2022-10-10T07:34:14;95778.34;;;15.51;58.69
16793;BME280;8513;42.662;23.350;2022-10-10T07:36:40;95775.53;;;15.53;60.13
16793;BME280;8513;42.662;23.350;2022-10-10T07:39:06;95772.56;;;15.48;59.13
16793;BME280;8513;42.662;23.350;2022-10-10T07:41:31;95766.75;;;15.60;58.75
16793;BME280;8513;42.662;23.350;2022-10-10T07:43:57;95758.63;;;15.54;58.71
16793;BME280;8513;42.662;23.350;2022-10-10T07:46:23;95767.13;;;15.74;58.58
16793;BME280;8513;42.662;23.350;2022-10-10T07:48:48;95763.28;;;15.68;58.69
16793;BME280;8513;42.662;23.350;2022-10-10T07:51:14;95756.03;;;15.86;58.53
16793;BME280;8513;42.662;23.350;2022-10-10T07:53:40;95764.66;;;15.80;58.54
16793;BME280;8513;42.662;23.350;2022-10-10T07:56:07;95762.31;;;16.10;58.35
16793;BME280;8513;42.662;23.350;2022-10-10T07:58:33;95764.25;;;16.32;57.56
16793;BME280;8513;42.662;23.350;2022-10-10T08:01:04;95750.97;;;16.41;57.65
16793;BME280;8513;42.662;23.350;2022-10-10T08:03:30;95756.75;;;16.52;56.58
16793;BME280;8513;42.662;23.350;2022-10-10T08:05:55;95757.13;;;16.41;59.04
16793;BME280;8513;42.662;23.350;2022-10-10T08:08:21;95751.94;;;16.48;57.82
16793;BME280;8513;42.662;23.350;2022-10-10T08:10:46;95746.13;;;16.61;57.81
16793;BME280;8513;42.662;23.350;2022-10-10T08:13:12;95741.59;;;16.78;57.24
16793;BME280;8513;42.662;23.350;2022-10-10T08:15:41;95741.19;;;16.89;56.89
16793;BME280;8513;42.662;23.350;2022-10-10T08:18:07;95748.09;;;17.06;56.52
16793;BME280;8513;42.662;23.350;2022-10-10T08:20:32;95739.75;;;17.17;56.03
16793;BME280;8513;42.662;23.350;2022-10-10T08:22:58;95744.28;;;17.32;55.89
16793;BME280;8513;42.662;23.350;2022-10-10T08:25:23;95750.78;;;17.37;56.91
16793;BME280;8513;42.662;23.350;2022-10-10T08:27:49;95748.16;;;17.52;55.61
16793;BME280;8513;42.662;23.350;2022-10-10T08:30:14;95755.91;;;17.62;55.98
16793;BME280;8513;42.662;23.350;2022-10-10T08:32:40;95754.00;;;17.71;55.09
16793;BME280;8513;42.662;23.350;2022-10-10T08:35:05;95742.91;;;17.90;54.19
16793;BME280;8513;42.662;23.350;2022-10-10T08:37:31;95740.66;;;18.02;53.31
16793;BME280;8513;42.662;23.350;2022-10-10T08:39:56;95741.56;;;18.09;52.63
16793;BME280;8513;42.662;23.350;2022-10-10T08:42:35;95747.38;;;18.13;52.36
16793;BME280;8513;42.662;23.350;2022-10-10T08:45:09;95745.25;;;18.23;52.97
16793;BME280;8513;42.662;23.350;2022-10-10T08:47:43;95751.53;;;18.30;52.31
16793;BME280;8513;42.662;23.350;2022-10-10T08:50:47;95761.56;;;18.43;52.67
16793;BME280;8513;42.662;23.350;2022-10-10T08:53:22;95757.34;;;18.48;51.38
16793;BME280;8513;42.662;23.350;2022-10-10T08:55:51;95752.84;;;18.64;50.89
16793;BME280;8513;42.662;23.350;2022-10-10T08:58:21;95755.41;;;18.57;49.51
16793;BME280;8513;42.662;23.350;2022-10-10T09:03:38;95766.56;;;18.76;49.62
16793;BME280;8513;42.662;23.350;2022-10-10T09:14:36;95771.50;;;18.93;48.08
16793;BME280;8513;42.662;23.350;2022-10-10T09:22:35;95769.88;;;18.92;48.79
16793;BME280;8513;42.662;23.350;2022-10-10T09:25:14;95759.75;;;18.88;48.33
16793;BME280;8513;42.662;23.350;2022-10-10T09:27:49;95765.53;;;18.91;49.08
16793;BME280;8513;42.662;23.350;2022-10-10T09:30:19;95769.41;;;19.04;48.06
16793;BME280;8513;42.662;23.350;2022-10-10T09:35:22;95769.94;;;19.14;48.22
16793;BME280;8513;42.662;23.350;2022-10-10T09:37:52;95772.06;;;19.04;48.72
16793;BME280;8513;42.662;23.350;2022-10-10T09:40:35;95775.28;;;19.14;46.31
16793;BME280;8513;42.662;23.350;2022-10-10T09:43:29;95771.31;;;19.10;46.46
16793;BME280;8513;42.662;23.350;2022-10-10T09:45:55;95768.25;;;19.13;46.87
16793;BME280;8513;42.662;23.350;2022-10-10T09:48:26;95768.75;;;19.16;46.24
16793;BME280;8513;42.662;23.350;2022-10-10T09:50:52;95773.06;;;19.03;46.88
16793;BME280;8513;42.662;23.350;2022-10-10T09:53:18;95769.78;;;19.01;46.44
16793;BME280;8513;42.662;23.350;2022-10-10T09:55:44;95770.38;;;19.03;46.90
16793;BME280;8513;42.662;23.350;2022-10-10T10:00:39;95759.56;;;19.04;46.43
16793;BME280;8513;42.662;23.350;2022-10-10T10:05:34;95753.88;;;19.29;47.13
16793;BME280;8513;42.662;23.350;2022-10-10T10:08:00;95764.91;;;19.41;45.87
16793;BME280;8513;42.662;23.350;2022-10-10T10:10:26;95754.34;;;19.54;44.88
16793;BME280;8513;42.662;23.350;2022-10-10T10:12:54;95749.16;;;19.46;45.70
16793;BME280;8513;42.662;23.350;2022-10-10T10:15:24;95749.72;;;19.41;46.11
16793;BME280;8513;42.662;23.350;2022-10-10T10:20:39;95755.38;;;19.53;45.55
16793;BME280;8513;42.662;23.350;2022-10-10T10:23:21;95749.38;;;19.66;45.18
16793;BME280;8513;42.662;23.350;2022-10-10T10:26:17;95741.44;;;19.72;44.78
16793;BME280;8513;42.662;23.350;2022-10-10T10:28:42;95748.50;;;19.80;44.64
16793;BME280;8513;42.662;23.350;2022-10-10T10:31:15;95745.19;;;19.78;44.14
16793;BME280;8513;42.662;23.350;2022-10-10T10:39:47;95743.94;;;19.59;44.87
16793;BME280;8513;42.662;23.350;2022-10-10T10:42:58;95742.16;;;19.45;46.25
16793;BME280;8513;42.662;23.350;2022-10-10T10:51:01;95733.53;;;19.43;45.03
16793;BME280;8513;42.662;23.350;2022-10-10T10:59:02;95743.16;;;19.22;45.16
16793;BME280;8513;42.662;23.350;2022-10-10T11:07:31;95720.66;;;19.10;45.11
16793;BME280;8513;42.662;23.350;2022-10-10T11:10:23;95718.91;;;19.17;45.05
16793;BME280;8513;42.662;23.350;2022-10-10T11:15:33;95696.31;;;19.34;44.39
16793;BME280;8513;42.662;23.350;2022-10-10T11:18:17;95705.25;;;19.27;44.42
16793;BME280;8513;42.662;23.350;2022-10-10T11:20:56;95705.56;;;19.17;44.94
16793;BME280;8513;42.662;23.350;2022-10-10T11:23:30;95706.84;;;19.21;44.64
16793;BME280;8513;42.662;23.350;2022-10-10T11:28:44;95714.31;;;19.11;45.19
16793;BME280;8513;42.662;23.350;2022-10-10T11:31:19;95710.00;;;19.10;45.59
16793;BME280;8513;42.662;23.350;2022-10-10T11:33:52;95705.38;;;19.18;45.04
16793;BME280;8513;42.662;23.350;2022-10-10T11:36:24;95702.31;;;19.22;44.91
16793;BME280;8513;42.662;23.350;2022-10-10T11:41:30;95688.56;;;19.18;46.00
16793;BME280;8513;42.662;23.350;2022-10-10T11:46:40;95676.50;;;19.22;45.94
16793;BME280;8513;42.662;23.350;2022-10-10T11:49:16;95679.56;;;19.41;44.74
16793;BME280;8513;42.662;23.350;2022-10-10T11:54:40;95661.31;;;19.66;44.33
16793;BME280;8513;42.662;23.350;2022-10-10T11:57:20;95667.59;;;19.73;44.34
16793;BME280;8513;42.662;23.350;2022-10-10T12:00:02;95657.91;;;19.72;44.52
16793;BME280;8513;42.662;23.350;2022-10-10T12:02:35;95656.94;;;19.79;43.84
16793;BME280;8513;42.662;23.350;2022-10-10T12:05:02;95652.38;;;19.73;44.41
16793;BME280;8513;42.662;23.350;2022-10-10T12:07:59;95655.91;;;19.80;44.31
16793;BME280;8513;42.662;23.350;2022-10-10T12:12:59;95659.41;;;20.09;42.52
16793;BME280;8513;42.662;23.350;2022-10-10T12:15:35;95655.56;;;20.53;40.86
16793;BME280;8513;42.662;23.350;2022-10-10T12:18:02;95662.25;;;21.32;38.87
16793;BME280;8513;42.662;23.350;2022-10-10T12:20:30;95643.78;;;22.88;36.18
16793;BME280;8513;42.662;23.350;2022-10-10T12:25:45;95637.16;;;25.40;30.52
16793;BME280;8513;42.662;23.350;2022-10-10T12:30:37;95628.63;;;24.64;32.31
16793;BME280;8513;42.662;23.350;2022-10-10T12:49:48;95621.75;;;35.02;16.74
16793;BME280;8513;42.662;23.350;2022-10-10T12:54:46;95618.63;;;30.83;21.25
16793;BME280;8513;42.662;23.350;2022-10-10T13:02:47;95626.25;;;27.12;27.61
16793;BME280;8513;42.662;23.350;2022-10-10T13:05:17;95620.81;;;27.52;26.64
16793;BME280;8513;42.662;23.350;2022-10-10T13:07:44;95617.38;;;26.99;27.80
16793;BME280;8513;42.662;23.350;2022-10-10T13:10:26;95615.47;;;27.12;27.35
16793;BME280;8513;42.662;23.350;2022-10-10T13:15:26;95619.28;;;25.88;28.75
16793;BME280;8513;42.662;23.350;2022-10-10T13:17:51;95628.28;;;25.40;29.81
16793;BME280;8513;42.662;23.350;2022-10-10T13:22:56;95616.69;;;24.17;31.68
16793;BME280;8513;42.662;23.350;2022-10-10T13:25:21;95619.31;;;23.80;32.33
16793;BME280;8513;42.662;23.350;2022-10-10T13:27:48;95620.53;;;24.03;32.25
16793;BME280;8513;42.662;23.350;2022-10-10T13:30:19;95617.78;;;24.09;32.14
16793;BME280;8513;42.662;23.350;2022-10-10T13:32:45;95618.75;;;23.40;33.16
16793;BME280;8513;42.662;23.350;2022-10-10T13:35:16;95610.16;;;23.56;33.53
16793;BME280;8513;42.662;23.350;2022-10-10T13:37:42;95623.59;;;23.24;33.59
16793;BME280;8513;42.662;23.350;2022-10-10T13:40:14;95618.31;;;23.11;34.21
16793;BME280;8513;42.662;23.350;2022-10-10T13:42:40;95610.00;;;23.19;34.51
16793;BME280;8513;42.662;23.350;2022-10-10T13:47:51;95616.44;;;22.66;35.03
16793;BME280;8513;42.662;23.350;2022-10-10T13:50:31;95612.41;;;22.44;35.46
16793;BME280;8513;42.662;23.350;2022-10-10T13:55:58;95608.94;;;22.17;35.95
16793;BME280;8513;42.662;23.350;2022-10-10T13:58:27;95602.53;;;22.38;35.89
16793;BME280;8513;42.662;23.350;2022-10-10T14:00:59;95613.72;;;22.08;36.49
16793;BME280;8513;42.662;23.350;2022-10-10T14:03:26;95612.50;;;21.71;36.80
16793;BME280;8513;42.662;23.350;2022-10-10T14:05:52;95607.97;;;21.58;37.45
16793;BME280;8513;42.662;23.350;2022-10-10T14:08:20;95618.06;;;21.56;37.65
16793;BME280;8513;42.662;23.350;2022-10-10T14:11:00;95614.56;;;21.55;37.99
16793;BME280;8513;42.662;23.350;2022-10-10T14:13:29;95605.50;;;21.50;37.97
16793;BME280;8513;42.662;23.350;2022-10-10T14:18:42;95620.44;;;21.11;38.13
16793;BME280;8513;42.662;23.350;2022-10-10T14:21:07;95612.38;;;20.91;38.23
16793;BME280;8513;42.662;23.350;2022-10-10T14:23:33;95608.69;;;20.99;38.57
16793;BME280;8513;42.662;23.350;2022-10-10T14:26:00;95604.81;;;21.01;38.08
16793;BME280;8513;42.662;23.350;2022-10-10T14:28:28;95604.81;;;21.01;39.63
16793;BME280;8513;42.662;23.350;2022-10-10T14:30:54;95596.78;;;21.08;39.41
16793;BME280;8513;42.662;23.350;2022-10-10T14:33:19;95595.94;;;21.14;39.18
16793;BME280;8513;42.662;23.350;2022-10-10T14:35:46;95595.59;;;21.30;38.83
16793;BME280;8513;42.662;23.350;2022-10-10T14:38:13;95591.06;;;21.31;38.56
16793;BME280;8513;42.662;23.350;2022-10-10T14:40:41;95592.69;;;21.19;38.97
16793;BME280;8513;42.662;23.350;2022-10-10T14:43:07;95591.25;;;21.23;38.98
16793;BME280;8513;42.662;23.350;2022-10-10T14:45:32;95593.91;;;21.09;39.19
16793;BME280;8513;42.662;23.350;2022-10-10T14:47:57;95594.91;;;21.08;39.63
16793;BME280;8513;42.662;23.350;2022-10-10T14:50:26;95597.56;;;20.95;39.49
16793;BME280;8513;42.662;23.350;2022-10-10T14:52:52;95591.59;;;20.80;39.87
16793;BME280;8513;42.662;23.350;2022-10-10T14:55:18;95590.31;;;20.76;40.22
16793;BME280;8513;42.662;23.350;2022-10-10T14:57:43;95596.94;;;20.80;39.68
16793;BME280;8513;42.662;23.350;2022-10-10T15:00:18;95587.53;;;20.49;40.23
16793;BME280;8513;42.662;23.350;2022-10-10T15:02:44;95588.75;;;20.46;40.32
16793;BME280;8513;42.662;23.350;2022-10-10T15:05:09;95583.75;;;20.30;40.50
16793;BME280;8513;42.662;23.350;2022-10-10T15:07:35;95591.53;;;20.25;41.15
16793;BME280;8513;42.662;23.350;2022-10-10T15:10:00;95590.56;;;19.98;40.46
16793;BME280;8513;42.662;23.350;2022-10-10T15:12:26;95579.75;;;19.78;41.40
16793;BME280;8513;42.662;23.350;2022-10-10T15:14:51;95588.47;;;19.65;41.73
16793;BME280;8513;42.662;23.350;2022-10-10T15:17:17;95577.34;;;19.61;41.54
16793;BME280;8513;42.662;23.350;2022-10-10T15:19:43;95587.84;;;19.63;41.34
16793;BME280;8513;42.662;23.350;2022-10-10T15:22:08;95592.66;;;19.53;41.68
16793;BME280;8513;42.662;23.350;2022-10-10T15:24:34;95595.34;;;19.53;41.79